Time;durP1;ratioP1;P1;durP2;ratioP2;P2;SDS_P1;SDS_P2;PMS_P1;PMS_P2;Temp;Humidity;BMP_temperature;BMP_pressure;BME280_temperature;BME280_humidity;BME280_pressure;Samples;Min_cycle;Max_cycle;Signal;HPM_P1;HPM_P2
2022/08/12 00:43:25;156077.00;0.52;270.28;15050.00;0.05;26.70;;;;;24.00;1.00;;;;;;2259645;61;629;-83
2022/08/12 00:48:52;0.00;0.00;0.62;0.00;0.00;0.62;;;;;23.70;1.00;;;;;;2241756;62;1575;-82
2022/08/12 00:51:20;0.00;0.00;0.62;0.00;0.00;0.62;;;;;23.60;1.00;;;;;;2242061;62;1920;-83
2022/08/12 00:53:47;0.00;0.00;0.62;0.00;0.00;0.62;;;;;23.70;1.00;;;;;;2241740;62;1562;-83
2022/08/12 00:56:14;0.00;0.00;0.62;0.00;0.00;0.62;;;;;23.60;1.00;;;;;;2241812;62;1362;-83
2022/08/12 00:58:49;37228.00;0.12;65.09;0.00;0.00;0.62;;;;;23.40;1.00;;;;;;2242035;62;1692;-84
2022/08/12 01:01:17;116201.00;0.39;201.53;49750.00;0.17;86.75;;;;;23.30;1.00;;;;;;2241946;62;1242;-83
2022/08/12 01:12:13;60853.00;0.20;105.95;0.00;0.00;0.62;;;;;22.80;1.00;;;;;;2242847;62;1040;-82
2022/08/12 01:14:43;23505.00;0.08;41.34;0.00;0.00;0.62;;;;;22.80;1.00;;;;;;2247256;61;1727;-86
2022/08/12 01:17:10;0.00;0.00;0.62;0.00;0.00;0.62;;;;;23.10;1.00;;;;;;2243696;62;1129;-83
2022/08/12 01:19:38;75248.00;0.25;130.83;5293.00;0.02;9.79;;;;;23.10;1.00;;;;;;2247269;61;1225;-84
2022/08/12 01:22:24;109727.00;0.37;190.36;0.00;0.00;0.62;;;;;23.30;1.00;;;;;;2256624;61;1100;-83
2022/08/12 01:24:59;0.00;0.00;0.62;0.00;0.00;0.62;;;;;23.50;1.00;;;;;;2256588;61;1625;-81
2022/08/12 01:27:28;0.00;0.00;0.62;0.00;0.00;0.62;;;;;23.30;1.00;;;;;;2256805;61;1953;-83
2022/08/12 01:29:59;0.00;0.00;0.62;0.00;0.00;0.62;;;;;23.40;1.00;;;;;;2255892;61;2023;-82
2022/08/12 01:32:28;11785.00;0.04;21.04;0.00;0.00;0.62;;;;;23.30;1.00;;;;;;2254976;61;1121;-83
2022/08/12 01:35:03;47059.00;0.16;82.10;0.00;0.00;0.62;;;;;23.00;1.00;;;;;;2255784;61;1357;-83
2022/08/12 01:37:35;331753.00;1.11;572.50;132288.00;0.44;229.27;;;;;23.10;1.00;;;;;;2255755;61;1616;-82
2022/08/12 01:40:05;0.00;0.00;0.62;0.00;0.00;0.62;;;;;23.30;1.00;;;;;;2255519;61;1626;-83
2022/08/12 01:42:39;0.00;0.00;0.62;0.00;0.00;0.62;;;;;23.40;1.00;;;;;;2260156;61;1108;-87
2022/08/12 01:45:08;0.00;0.00;0.62;0.00;0.00;0.62;;;;;23.50;1.00;;;;;;2256853;61;1526;-84
2022/08/12 01:47:49;64617.00;0.22;112.46;0.00;0.00;0.62;;;;;23.00;1.00;;;;;;2256296;61;1697;-83
2022/08/12 01:50:25;31795.00;0.11;55.69;0.00;0.00;0.62;;;;;22.90;1.00;;;;;;2256029;61;1943;-84
2022/08/12 01:53:04;0.00;0.00;0.62;0.00;0.00;0.62;;;;;22.60;1.00;;;;;;2256671;61;1075;-83
2022/08/12 01:55:37;0.00;0.00;0.62;0.00;0.00;0.62;;;;;22.40;1.00;;;;;;2257305;61;1460;-86
2022/08/12 01:58:17;42848.00;0.14;74.82;0.00;0.00;0.62;;;;;22.40;1.00;;;;;;2260735;61;1637;-86
2022/08/12 02:00:51;57767.00;0.19;100.62;0.00;0.00;0.62;;;;;22.50;1.00;;;;;;2258853;61;1084;-82
2022/08/12 02:12:53;64487.00;0.21;112.23;0.00;0.00;0.62;;;;;22.80;1.00;;;;;;2256254;61;785;-83
2022/08/12 02:15:31;273310.00;0.91;472.04;68230.00;0.23;118.70;;;;;22.40;1.00;;;;;;2257708;61;1451;-83
2022/08/12 02:18:09;0.00;0.00;0.62;0.00;0.00;0.62;;;;;22.60;1.00;;;;;;2257325;61;1067;-83
2022/08/12 02:20:43;0.00;0.00;0.62;0.00;0.00;0.62;;;;;22.90;1.00;;;;;;2257481;61;1265;-83
2022/08/12 02:23:13;0.00;0.00;0.62;0.00;0.00;0.62;;;;;23.10;1.00;;;;;;2257588;61;1109;-83
2022/08/12 02:25:45;5007.00;0.02;9.30;0.00;0.00;0.62;;;;;23.20;1.00;;;;;;2256513;61;1390;-83
2022/08/12 02:28:13;0.00;0.00;0.62;0.00;0.00;0.62;;;;;23.40;1.00;;;;;;2255647;61;1193;-83
2022/08/12 02:30:41;145279.00;0.48;251.67;39180.00;0.13;68.47;;;;;23.30;1.00;;;;;;2254921;61;1916;-84
2022/08/12 02:33:09;21988.00;0.07;38.71;0.00;0.00;0.62;;;;;23.20;1.00;;;;;;2255446;61;1259;-83
2022/08/12 02:35:38;0.00;0.00;0.62;0.00;0.00;0.62;;;;;23.40;1.00;;;;;;2254790;61;1352;-83
2022/08/12 02:38:08;0.00;0.00;0.62;0.00;0.00;0.62;;;;;23.30;1.00;;;;;;2255447;61;1101;-83
2022/08/12 02:40:38;0.00;0.00;0.62;0.00;0.00;0.62;;;;;22.90;1.00;;;;;;2258943;61;1619;-82
2022/08/12 02:43:19;0.00;0.00;0.62;0.00;0.00;0.62;;;;;22.70;1.00;;;;;;2256810;61;1155;-84
2022/08/12 02:45:50;0.00;0.00;0.62;0.00;0.00;0.62;;;;;22.60;1.00;;;;;;2254793;61;1428;-84
2022/08/12 02:48:29;0.00;0.00;0.62;0.00;0.00;0.62;;;;;22.40;1.00;;;;;;2255017;61;1190;-84
2022/08/12 02:51:00;35920.00;0.12;62.83;0.00;0.00;0.62;;;;;22.00;1.00;;;;;;2255226;61;2002;-83
2022/08/12 02:53:28;75816.00;0.25;131.81;0.00;0.00;0.62;;;;;22.20;1.00;;;;;;2255371;61;1144;-83
2022/08/12 02:56:01;0.00;0.00;0.62;0.00;0.00;0.62;;;;;22.20;1.00;;;;;;2256355;61;1268;-85
2022/08/12 02:58:31;50093.00;0.17;87.35;0.00;0.00;0.62;;;;;22.30;1.00;;;;;;2259096;61;2373;-82
2022/08/12 03:01:00;0.00;0.00;0.62;0.00;0.00;0.62;;;;;22.00;1.00;;;;;;2255261;61;1169;-83
2022/08/12 03:03:31;215646.00;0.72;372.85;82405.00;0.27;143.19;;;;;21.50;1.00;;;;;;2255879;61;1132;-83
2022/08/12 03:06:01;0.00;0.00;0.62;0.00;0.00;0.62;;;;;21.40;1.00;;;;;;2255587;61;1656;-83
2022/08/12 03:08:31;175633.00;0.59;303.97;0.00;0.00;0.62;;;;;21.70;1.00;;;;;;2255499;61;1241;-84
2022/08/12 03:11:03;143848.00;0.48;249.20;14740.00;0.05;26.16;;;;;22.10;1.00;;;;;;2255164;61;1998;-84
2022/08/12 03:13:39;0.00;0.00;0.62;0.00;0.00;0.62;;;;;22.30;1.00;;;;;;2254817;61;1136;-83
2022/08/12 03:16:06;0.00;0.00;0.62;0.00;0.00;0.62;;;;;22.10;1.00;;;;;;2254503;61;1724;-83
2022/08/12 03:18:33;0.00;0.00;0.62;0.00;0.00;0.62;;;;;22.10;1.00;;;;;;2255458;61;2229;-84
2022/08/12 03:21:01;45603.00;0.15;79.58;0.00;0.00;0.62;;;;;22.00;1.00;;;;;;2254880;61;1098;-83
2022/08/12 03:23:30;62437.00;0.21;108.69;0.00;0.00;0.62;;;;;21.50;1.00;;;;;;2255057;61;1207;-84
2022/08/12 03:25:59;25550.00;0.09;44.88;0.00;0.00;0.62;;;;;21.70;1.00;;;;;;2254895;61;1365;-84
2022/08/12 03:31:15;72812.00;0.24;126.62;2606.00;0.01;5.14;;;;;22.00;1.00;;;;;;2253986;61;1923;-82
2022/08/12 03:33:43;0.00;0.00;0.62;0.00;0.00;0.62;;;;;22.30;1.00;;;;;;2253717;61;1113;-82
2022/08/12 03:36:13;0.00;0.00;0.62;0.00;0.00;0.62;;;;;22.60;1.00;;;;;;2254519;61;1336;-83
2022/08/12 03:38:42;0.00;0.00;0.62;0.00;0.00;0.62;;;;;22.80;1.00;;;;;;2254715;61;1105;-83
2022/08/12 03:41:34;0.00;0.00;0.62;0.00;0.00;0.62;;;;;22.90;1.00;;;;;;2254646;61;1144;-82
2022/08/12 04:00:41;0.00;0.00;0.62;0.00;0.00;0.62;;;;;21.30;1.00;;;;;;2258672;61;756;-84
2022/08/12 04:05:51;0.00;0.00;0.62;0.00;0.00;0.62;;;;;21.50;1.00;;;;;;2254368;61;1231;-84
2022/08/12 04:08:21;200332.00;0.67;346.50;0.00;0.00;0.62;;;;;21.30;1.00;;;;;;2254608;61;1185;-83
2022/08/12 04:13:33;87928.00;0.29;152.73;19445.00;0.06;34.31;;;;;20.20;1.00;;;;;;2258131;61;745;-83
2022/08/12 04:16:01;210050.00;0.70;363.22;0.00;0.00;0.62;;;;;20.10;1.00;;;;;;2255207;61;2233;-83
2022/08/12 04:18:31;194318.00;0.65;336.14;0.00;0.00;0.62;;;;;19.60;1.00;;;;;;2255273;61;1245;-83
2022/08/12 04:21:01;211029.00;0.70;364.91;0.00;0.00;0.62;;;;;19.30;1.00;;;;;;2255160;61;1161;-83
2022/08/12 04:23:30;309955.00;1.03;535.03;0.00;0.00;0.62;;;;;19.40;1.00;;;;;;2255835;61;1763;-83
2022/08/12 04:25:57;249393.00;0.83;430.91;0.00;0.00;0.62;;;;;19.10;1.00;;;;;;2258420;61;1340;-85
2022/08/12 04:28:27;86685.00;0.29;150.58;0.00;0.00;0.62;;;;;19.30;1.00;;;;;;2260195;61;1196;-84
2022/08/12 04:30:55;118755.00;0.40;205.93;0.00;0.00;0.62;;;;;19.40;1.00;;;;;;2257898;61;1943;-83
2022/08/12 04:33:24;532463.00;1.77;917.74;20051.00;0.07;35.36;;;;;19.40;1.00;;;;;;2254782;61;1144;-84
2022/08/12 04:35:53;132553.00;0.44;229.73;0.00;0.00;0.62;;;;;19.40;1.00;;;;;;2255402;61;1373;-82
2022/08/12 04:38:23;257202.00;0.86;444.34;16328.00;0.05;28.91;;;;;19.30;1.00;;;;;;2254591;61;1192;-83
2022/08/12 04:40:50;279990.00;0.93;483.52;49450.00;0.16;86.24;;;;;19.30;1.00;;;;;;2255015;61;1011;-81
2022/08/12 04:43:17;215738.00;0.72;373.01;0.00;0.00;0.62;;;;;19.20;1.00;;;;;;2254856;61;1654;-82
2022/08/12 04:45:45;313473.00;1.04;541.08;0.00;0.00;0.62;;;;;19.00;1.00;;;;;;2254652;61;1664;-84
2022/08/12 04:48:12;213573.00;0.71;369.28;0.00;0.00;0.62;;;;;18.80;1.00;;;;;;2254944;61;1120;-83
2022/08/12 04:50:40;332683.00;1.11;574.10;33778.00;0.11;59.12;;;;;18.80;1.00;;;;;;2254883;61;1084;-83
2022/08/12 04:53:08;610127.00;2.03;1051.71;83031.00;0.28;144.27;;;;;18.80;1.00;;;;;;2255414;61;2025;-83
2022/08/12 04:55:37;363627.00;1.21;627.28;35772.00;0.12;62.57;;;;;18.90;1.00;;;;;;2256330;61;1352;-84
2022/08/12 04:58:04;135420.00;0.45;234.67;0.00;0.00;0.62;;;;;19.10;1.00;;;;;;2256071;61;1441;-83
2022/08/12 05:00:31;328432.00;1.09;566.79;0.00;0.00;0.62;;;;;19.10;1.00;;;;;;2256118;61;2337;-83
2022/08/12 05:02:59;460541.00;1.54;793.92;28423.00;0.09;49.85;;;;;19.20;1.00;;;;;;2256394;61;1184;-83
2022/08/12 05:05:26;555781.00;1.85;957.93;40010.00;0.13;69.91;;;;;19.40;1.00;;;;;;2256186;61;1264;-83
2022/08/12 05:07:53;246697.00;0.82;426.27;0.00;0.00;0.62;;;;;19.40;1.00;;;;;;2255255;61;1179;-83
2022/08/12 05:10:23;168382.00;0.56;291.48;0.00;0.00;0.62;;;;;19.40;1.00;;;;;;2255117;61;1171;-83
2022/08/12 05:12:54;148681.00;0.50;257.53;0.00;0.00;0.62;;;;;19.30;1.00;;;;;;2255876;61;1927;-83
2022/08/12 05:15:22;175725.00;0.59;304.13;14257.00;0.05;25.32;;;;;19.60;1.00;;;;;;2255696;61;1465;-83
2022/08/12 05:17:49;76663.00;0.26;133.27;0.00;0.00;0.62;;;;;19.90;1.00;;;;;;2255616;61;1136;-82
2022/08/12 05:20:15;169337.00;0.56;293.12;0.00;0.00;0.62;;;;;19.80;1.00;;;;;;2255855;61;1111;-83
2022/08/12 05:22:44;201818.00;0.67;349.05;35910.00;0.12;62.81;;;;;19.70;1.00;;;;;;2255522;61;1144;-82
2022/08/12 05:25:11;432478.00;1.44;745.65;52382.00;0.17;91.31;;;;;19.40;1.00;;;;;;2257467;61;1274;-86
2022/08/12 05:27:40;1227658.00;4.09;2140.31;188328.00;0.63;325.83;;;;;19.60;1.00;;;;;;2259386;61;1115;-83
2022/08/12 05:30:08;705390.00;2.35;1216.59;35331.00;0.12;61.81;;;;;19.80;1.00;;;;;;2256109;61;1148;-83
2022/08/12 05:32:36;1007832.00;3.36;1746.35;123091.00;0.41;213.41;;;;;19.90;1.00;;;;;;2256261;61;1920;-83
2022/08/12 05:35:05;283500.00;0.94;489.55;30321.00;0.10;53.14;;;;;19.70;1.00;;;;;;2255958;61;1304;-83
2022/08/12 05:37:33;185648.00;0.62;321.22;0.00;0.00;0.62;;;;;19.60;1.00;;;;;;2255683;61;1125;-84
2022/08/12 05:40:00;186497.00;0.62;322.68;0.00;0.00;0.62;;;;;20.50;1.00;;;;;;2255572;61;1156;-84
2022/08/12 05:42:26;195563.00;0.65;338.29;70743.00;0.24;123.04;;;;;22.10;1.00;;;;;;2255862;61;1666;-84
2022/08/12 05:44:55;211437.00;0.70;365.61;73610.00;0.25;128.00;;;;;24.00;1.00;;;;;;2255726;61;1284;-83
2022/08/12 05:47:21;177141.00;0.59;306.57;72217.00;0.24;125.59;;;;;26.20;1.00;;;;;;2255284;61;1086;-83
2022/08/12 05:49:48;0.00;0.00;0.62;0.00;0.00;0.62;;;;;27.90;1.00;;;;;;2255182;61;1143;-84
2022/08/12 05:52:15;36670.00;0.12;64.13;0.00;0.00;0.62;;;;;28.90;1.00;;;;;;2254955;61;1935;-84
2022/08/12 05:54:44;0.00;0.00;0.62;0.00;0.00;0.62;;;;;30.10;1.00;;;;;;2255587;61;1364;-86
2022/08/12 05:57:11;3643.00;0.01;6.93;0.00;0.00;0.62;;;;;30.90;1.00;;;;;;2255563;61;1069;-84
2022/08/12 05:59:39;0.00;0.00;0.62;0.00;0.00;0.62;;;;;31.50;1.00;;;;;;2255242;61;1618;-83
2022/08/12 06:02:10;0.00;0.00;0.62;0.00;0.00;0.62;;;;;31.70;1.00;;;;;;2255366;61;1150;-84
2022/08/12 06:04:39;0.00;0.00;0.62;0.00;0.00;0.62;;;;;32.60;1.00;;;;;;2255391;61;1372;-84
2022/08/12 06:07:11;0.00;0.00;0.62;0.00;0.00;0.62;;;;;32.60;1.00;;;;;;2254829;61;1252;-85
2022/08/12 06:09:38;0.00;0.00;0.62;0.00;0.00;0.62;;;;;33.20;1.00;;;;;;2255279;61;1235;-83
2022/08/12 06:12:05;0.00;0.00;0.62;0.00;0.00;0.62;;;;;33.80;1.00;;;;;;2254885;61;2011;-84
2022/08/12 06:14:33;0.00;0.00;0.62;0.00;0.00;0.62;;;;;34.30;1.00;;;;;;2255279;61;1270;-84
2022/08/12 06:17:01;0.00;0.00;0.62;0.00;0.00;0.62;;;;;34.50;1.00;;;;;;2255797;61;1146;-82
2022/08/12 06:19:30;132551.00;0.44;229.73;0.00;0.00;0.62;;;;;34.80;1.00;;;;;;2256559;61;1564;-83
2022/08/12 06:21:57;11134.00;0.04;19.91;0.00;0.00;0.62;;;;;34.60;1.00;;;;;;2255030;61;1780;-83
2022/08/12 06:24:27;30988.00;0.10;54.29;0.00;0.00;0.62;;;;;35.30;1.00;;;;;;2254878;61;1314;-84
2022/08/12 06:26:54;0.00;0.00;0.62;0.00;0.00;0.62;;;;;36.10;1.00;;;;;;2254675;61;1584;-83
2022/08/12 06:29:22;0.00;0.00;0.62;0.00;0.00;0.62;;;;;36.00;1.00;;;;;;2255152;61;1116;-83
2022/08/12 06:31:50;313746.00;1.05;541.55;93167.00;0.31;161.78;;;;;36.10;1.00;;;;;;2254890;61;1938;-84
2022/08/12 06:34:18;9068.00;0.03;16.33;0.00;0.00;0.62;;;;;36.20;1.00;;;;;;2254996;61;1376;-84
2022/08/12 06:36:47;0.00;0.00;0.62;0.00;0.00;0.62;;;;;36.40;1.00;;;;;;2255173;61;2433;-84
2022/08/12 06:39:15;0.00;0.00;0.62;0.00;0.00;0.62;;;;;36.80;1.00;;;;;;2258871;61;1140;-85
2022/08/12 06:44:27;0.00;0.00;0.62;0.00;0.00;0.62;;;;;36.70;1.00;;;;;;2256731;61;1333;-84
2022/08/12 06:46:54;0.00;0.00;0.62;0.00;0.00;0.62;;;;;36.30;1.00;;;;;;2255958;61;1150;-84
2022/08/12 06:49:21;0.00;0.00;0.62;0.00;0.00;0.62;;;;;36.90;1.00;;;;;;2255722;61;1146;-84
2022/08/12 06:51:49;79683.00;0.27;138.49;0.00;0.00;0.62;;;;;37.10;1.00;;;;;;2255486;61;1924;-83
2022/08/12 06:54:16;0.00;0.00;0.62;0.00;0.00;0.62;;;;;36.90;1.00;;;;;;2255406;61;1090;-84
2022/08/12 06:56:43;231915.00;0.77;400.84;540.00;0.00;1.56;;;;;36.00;1.00;;;;;;2260160;61;1516;-87
2022/08/12 06:59:13;474308.00;1.58;817.60;11356.00;0.04;20.30;;;;;36.30;1.00;;;;;;2260503;61;1102;-85
2022/08/12 07:01:40;852070.00;2.84;1472.09;57428.00;0.19;100.03;;;;;36.50;1.00;;;;;;2255948;61;1240;-85
2022/08/12 07:04:07;634151.00;2.11;1093.23;59472.00;0.20;103.56;;;;;36.60;1.00;;;;;;2256508;61;1074;-84
2022/08/12 07:06:34;753561.00;2.51;1300.25;34345.00;0.11;60.10;;;;;36.00;1.00;;;;;;2256198;61;1381;-83
2022/08/12 07:09:03;766204.00;2.55;1322.25;77455.00;0.26;134.64;;;;;35.20;1.00;;;;;;2256065;61;1109;-83
2022/08/12 07:11:32;591046.00;1.97;1018.76;12097.00;0.04;21.58;;;;;35.40;1.00;;;;;;2255840;61;1252;-84
2022/08/12 07:14:00;641120.00;2.14;1105.28;25839.00;0.09;45.38;;;;;35.80;1.00;;;;;;2256906;61;2013;-85
2022/08/12 07:16:50;660341.00;2.20;1138.53;21761.00;0.07;38.32;;;;;36.20;1.00;;;;;;2256920;61;1264;-83
2022/08/12 07:19:16;329949.00;1.10;569.40;14774.00;0.05;26.22;;;;;35.20;1.00;;;;;;2256563;61;1304;-84
2022/08/12 07:21:43;1177998.00;3.93;2050.49;101065.00;0.34;175.41;;;;;35.10;1.00;;;;;;2256492;61;1149;-84
2022/08/12 07:24:12;825861.00;2.75;1426.26;21716.00;0.07;38.24;;;;;35.30;1.00;;;;;;2257693;61;1053;-85
2022/08/12 07:26:40;1206479.00;4.02;2101.94;54280.00;0.18;94.59;;;;;35.80;1.00;;;;;;2257607;61;1420;-84
2022/08/12 07:29:09;888157.00;2.96;1535.33;93992.00;0.31;163.20;;;;;35.10;1.00;;;;;;2258261;61;1116;-84
2022/08/12 07:31:36;750832.00;2.50;1295.50;150276.00;0.50;260.28;;;;;35.90;1.00;;;;;;2258018;61;1103;-84
2022/08/12 07:34:03;537087.00;1.79;925.70;71821.00;0.24;124.91;;;;;36.70;1.00;;;;;;2260140;61;1936;-85
2022/08/12 07:36:31;1025922.00;3.42;1778.44;80687.00;0.27;140.22;;;;;37.20;1.00;;;;;;2260404;61;1389;-87
2022/08/12 07:38:58;680877.00;2.27;1174.09;68684.00;0.23;119.49;;;;;37.60;1.00;;;;;;2260005;61;1153;-85
2022/08/12 07:41:30;621367.00;2.07;1071.13;85717.00;0.29;148.91;;;;;38.10;1.00;;;;;;2258800;61;1161;-84
2022/08/12 07:43:59;600734.00;2.00;1035.49;105927.00;0.35;183.80;;;;;37.00;1.00;;;;;;2258369;61;1600;-84
2022/08/12 07:46:30;661828.00;2.21;1141.10;62221.00;0.21;108.32;;;;;36.70;1.00;;;;;;2258767;61;1493;-85
2022/08/12 07:49:01;315610.00;1.05;544.75;53066.00;0.18;92.49;;;;;37.30;1.00;;;;;;2258461;61;1137;-84
2022/08/12 07:51:29;771055.00;2.57;1330.69;66064.00;0.22;114.96;;;;;37.80;1.00;;;;;;2258141;61;1147;-84
2022/08/12 07:53:59;863877.00;2.88;1492.76;108343.00;0.36;187.97;;;;;37.80;1.00;;;;;;2260208;61;2407;-90
2022/08/12 07:56:29;973547.00;3.25;1685.68;123427.00;0.41;213.99;;;;;36.50;1.00;;;;;;2258499;61;1457;-84
2022/08/12 07:58:57;725937.00;2.42;1252.25;66318.00;0.22;115.40;;;;;36.90;1.00;;;;;;2258665;61;1137;-84
2022/08/12 08:01:24;646446.00;2.15;1114.49;131453.00;0.44;227.83;;;;;37.30;1.00;;;;;;2258391;61;1632;-84
2022/08/12 08:06:41;312469.00;1.04;539.35;22796.00;0.08;40.11;;;;;36.20;1.00;;;;;;2258384;61;1391;-84
2022/08/12 08:09:10;168537.00;0.56;291.75;57897.00;0.19;100.84;;;;;35.60;1.00;;;;;;2259065;61;1088;-84
2022/08/12 08:14:27;101774.00;0.34;176.63;0.00;0.00;0.62;;;;;35.10;1.00;;;;;;2258978;61;1441;-85
2022/08/12 08:16:55;332540.00;1.11;573.85;71823.00;0.24;124.91;;;;;35.80;1.00;;;;;;2258878;61;1119;-85
2022/08/12 08:19:22;117999808.00;393.33;66554656.00;54641.00;0.18;95.21;;;;;36.60;1.00;;;;;;2258798;61;1168;-84
2022/08/12 08:21:49;198237.00;0.66;342.89;52303.00;0.17;91.17;;;;;36.40;1.00;;;;;;2258521;61;1773;-85
2022/08/12 08:24:17;278610.00;0.93;481.15;58969.00;0.20;102.69;;;;;35.00;1.00;;;;;;2258797;61;1153;-84
2022/08/12 08:26:47;203323.00;0.68;351.64;55016.00;0.18;95.86;;;;;34.40;1.00;;;;;;2259056;61;1425;-84
2022/08/12 08:29:15;228000.00;0.76;394.11;53791.00;0.18;93.74;;;;;34.10;1.00;;;;;;2258551;61;1747;-83
2022/08/12 08:31:45;322705.00;1.08;556.95;58240.00;0.19;101.43;;;;;34.40;1.00;;;;;;2259090;61;1113;-83
2022/08/12 08:34:12;169431.00;0.56;293.29;64971.00;0.22;113.07;;;;;35.50;1.00;;;;;;2258415;61;2018;-84
2022/08/12 08:36:40;259803.00;0.87;448.81;77638.00;0.26;134.96;;;;;35.40;1.00;;;;;;2258642;61;1359;-86
2022/08/12 08:39:08;354473.00;1.18;611.55;108977.00;0.36;189.06;;;;;34.90;1.00;;;;;;2258502;61;1220;-84
2022/08/12 08:44:21;319170.00;1.06;550.87;33978.00;0.11;59.47;;;;;33.20;1.00;;;;;;2259577;61;788;-85
2022/08/12 08:46:48;248629.00;0.83;429.59;58752.00;0.20;102.32;;;;;33.80;1.00;;;;;;2258828;61;1147;-86
2022/08/12 08:49:16;166538.00;0.56;288.30;57614.00;0.19;100.35;;;;;33.70;1.00;;;;;;2259454;61;1088;-86
2022/08/12 08:51:45;114780.00;0.38;199.08;0.00;0.00;0.62;;;;;33.20;1.00;;;;;;2258994;61;1168;-86
2022/08/12 08:54:13;98905.00;0.33;171.68;0.00;0.00;0.62;;;;;33.30;1.00;;;;;;2259518;61;1932;-85
2022/08/12 08:56:44;215146.00;0.72;371.99;0.00;0.00;0.62;;;;;33.40;1.00;;;;;;2259459;61;1212;-82
2022/08/12 08:59:12;0.00;0.00;0.62;0.00;0.00;0.62;;;;;33.30;1.00;;;;;;2258418;61;1675;-85
2022/08/12 09:01:41;62437.00;0.21;108.69;0.00;0.00;0.62;;;;;34.00;1.00;;;;;;2257727;61;1184;-84
2022/08/12 09:04:10;159041.00;0.53;275.39;0.00;0.00;0.62;;;;;34.40;1.00;;;;;;2259166;61;1176;-84
2022/08/12 09:06:40;67053.00;0.22;116.67;0.00;0.00;0.62;;;;;33.60;1.00;;;;;;2258286;61;2172;-85
2022/08/12 09:09:07;0.00;0.00;0.62;0.00;0.00;0.62;;;;;32.80;1.00;;;;;;2259685;61;1574;-84
2022/08/12 09:14:19;395600.00;1.32;682.24;186538.00;0.62;322.75;;;;;32.80;1.00;;;;;;2259258;61;1928;-83
2022/08/12 09:16:49;112063.00;0.37;194.39;0.00;0.00;0.62;;;;;32.20;1.00;;;;;;2258264;61;1549;-83
2022/08/12 09:19:17;325538.00;1.09;561.82;76168.00;0.25;132.42;;;;;31.70;1.00;;;;;;2260143;61;1081;-87
2022/08/12 09:21:46;82370.00;0.27;143.13;0.00;0.00;0.62;;;;;31.00;1.00;;;;;;2260147;61;1314;-89
2022/08/12 09:24:14;79658.00;0.27;138.45;0.00;0.00;0.62;;;;;30.60;1.00;;;;;;2258910;61;1145;-85
2022/08/12 09:26:42;18644.00;0.06;32.92;0.00;0.00;0.62;;;;;30.30;1.00;;;;;;2257023;61;1354;-86
2022/08/12 09:29:09;0.00;0.00;0.62;0.00;0.00;0.62;;;;;30.10;1.00;;;;;;2257079;61;1178;-84
2022/08/12 09:31:36;0.00;0.00;0.62;0.00;0.00;0.62;;;;;29.90;1.00;;;;;;2257140;61;1170;-83
2022/08/12 09:34:07;36553.00;0.12;63.92;0.00;0.00;0.62;;;;;29.80;1.00;;;;;;2258123;61;1997;-84
2022/08/12 09:36:37;28306.00;0.09;49.65;0.00;0.00;0.62;;;;;29.60;1.00;;;;;;2258466;61;1451;-84
2022/08/12 09:39:06;0.00;0.00;0.62;0.00;0.00;0.62;;;;;29.90;1.00;;;;;;2258659;61;1563;-84
2022/08/12 09:41:39;0.00;0.00;0.62;0.00;0.00;0.62;;;;;30.20;1.00;;;;;;2258963;61;1567;-84
2022/08/12 09:54:30;481280.00;1.60;829.60;0.00;0.00;0.62;;;;;31.00;1.00;;;;;;2314205;40;3392;-89
2022/08/12 09:59:40;765092.00;2.55;1320.31;0.00;0.00;0.62;;;;;30.70;1.00;;;;;;2277890;40;3540;-89
2022/08/12 10:02:11;178116.00;0.59;308.25;0.00;0.00;0.62;;;;;30.60;1.00;;;;;;2268144;61;1603;-90
2022/08/12 10:04:47;168600.00;0.56;291.86;0.00;0.00;0.62;;;;;30.10;1.00;;;;;;2268342;61;1635;-90
2022/08/12 10:07:17;96837.00;0.32;168.11;0.00;0.00;0.62;;;;;30.60;1.00;;;;;;2268603;61;1557;-88
2022/08/12 10:09:51;536699.00;1.79;925.03;7051.00;0.02;12.84;;;;;30.70;1.00;;;;;;2307503;56;3771;-90
2022/08/12 10:17:30;909664.00;3.03;1573.10;0.00;0.00;0.62;;;;;30.10;1.00;;;;;;2273291;55;3653;-87
2022/08/12 10:19:58;805858.00;2.69;1391.34;84863.00;0.28;147.44;;;;;29.30;1.00;;;;;;2268492;61;1098;-89
2022/08/12 10:22:38;1836927.00;6.12;3294.68;203241.00;0.68;351.50;;;;;29.50;1.00;;;;;;2268549;61;972;-84
2022/08/12 10:30:30;2262398.00;7.54;4177.77;121861.00;0.41;211.29;;;;;30.30;1.00;;;;;;2278491;61;1387;-88
2022/08/12 10:33:02;437724.00;1.46;754.67;66244.00;0.22;115.27;;;;;29.90;1.00;;;;;;2276365;61;1924;-85
2022/08/12 10:36:03;385631.00;1.29;665.10;59834.00;0.20;104.19;;;;;29.70;1.00;;;;;;2276414;61;1480;-85
2022/08/12 10:43:49;191931.00;0.64;332.03;58780.00;0.20;102.37;;;;;29.90;1.00;;;;;;2288308;40;3739;-86
2022/08/12 10:46:22;913547.00;3.05;1579.93;89526.00;0.30;155.49;;;;;29.90;1.00;;;;;;2269569;55;3844;-86
2022/08/12 10:48:53;563256.00;1.88;970.82;37519.00;0.13;65.60;;;;;29.80;1.00;;;;;;2268408;61;1779;-86
2022/08/12 10:51:30;308622.00;1.03;532.74;13561.00;0.05;24.12;;;;;29.70;1.00;;;;;;2278475;40;3595;-85
2022/08/12 10:54:13;211903.00;0.71;366.41;0.00;0.00;0.62;;;;;29.60;1.00;;;;;;2268202;61;2012;-86
2022/08/12 10:56:50;396343.00;1.32;683.52;78552.00;0.26;136.54;;;;;29.90;1.00;;;;;;2268216;61;1498;-85
2022/08/12 10:59:18;102409.00;0.34;177.73;0.00;0.00;0.62;;;;;29.80;1.00;;;;;;2268099;61;1553;-85
2022/08/12 11:01:45;258823.00;0.86;447.12;0.00;0.00;0.62;;;;;30.30;1.00;;;;;;2268216;61;1628;-85
2022/08/12 11:07:03;1424527.00;4.75;2501.89;37467.00;0.12;65.51;;;;;30.10;1.00;;;;;;2277832;61;1364;-86
2022/08/12 11:09:31;144124.00;0.48;249.68;0.00;0.00;0.62;;;;;30.00;1.00;;;;;;2276432;61;1578;-86
2022/08/12 11:14:32;1291738.00;4.31;2256.99;0.00;0.00;0.62;;;;;29.90;1.00;;;;;;2269166;61;1891;-90
2022/08/12 11:21:58;1064603.00;3.55;1847.24;0.00;0.00;0.62;;;;;29.90;1.00;;;;;;2305937;40;3680;-85
2022/08/12 11:24:27;471671.00;1.57;813.06;71145.00;0.24;123.74;;;;;29.90;1.00;;;;;;2268117;61;1541;-88
2022/08/12 11:29:34;200058.00;0.67;346.02;0.00;0.00;0.62;;;;;30.00;1.00;;;;;;588274;40;3259;-85
2022/08/12 11:32:02;115332.00;0.38;200.03;0.00;0.00;0.62;;;;;29.80;1.00;;;;;;2268164;61;1058;-86
2022/08/12 11:34:38;152695.00;0.51;264.45;0.00;0.00;0.62;;;;;30.20;1.00;;;;;;2268158;61;2018;-87
2022/08/12 11:37:06;389378.00;1.30;671.55;0.00;0.00;0.62;;;;;29.90;1.00;;;;;;2304038;41;3870;-87
2022/08/12 11:39:35;119408.00;0.40;207.06;0.00;0.00;0.62;;;;;29.80;1.00;;;;;;2268197;61;1605;-90
2022/08/12 11:42:03;499712.00;1.67;861.33;35868.00;0.12;62.74;;;;;29.60;1.00;;;;;;2268236;61;1622;-85
2022/08/12 11:44:39;69335.00;0.23;120.61;0.00;0.00;0.62;;;;;29.40;1.00;;;;;;2268406;61;1325;-86
2022/08/12 11:47:09;191908.00;0.64;331.99;0.00;0.00;0.62;;;;;29.60;1.00;;;;;;2277996;55;3868;-89
2022/08/12 11:52:07;547270.00;1.82;943.25;0.00;0.00;0.62;;;;;29.60;1.00;;;;;;2266073;61;1392;-85
2022/08/12 11:54:34;173028.00;0.58;299.48;0.00;0.00;0.62;;;;;29.00;1.00;;;;;;2264017;61;1919;-87
2022/08/12 11:57:02;263479.00;0.88;455.13;41809.00;0.14;73.02;;;;;29.10;1.00;;;;;;2264047;61;1383;-86
2022/08/12 11:59:35;281813.00;0.94;486.65;0.00;0.00;0.62;;;;;29.30;1.00;;;;;;2264069;61;1615;-84
2022/08/12 12:02:10;138165.00;0.46;239.41;0.00;0.00;0.62;;;;;29.60;1.00;;;;;;2263938;61;1117;-84
2022/08/12 12:09:39;765336.00;2.55;1320.73;0.00;0.00;0.62;;;;;29.20;1.00;;;;;;2269797;61;1415;-86
2022/08/12 12:12:08;592791.00;1.98;1021.77;102717.00;0.34;178.26;;;;;29.10;1.00;;;;;;2267972;61;1527;-83
2022/08/12 12:14:45;228826.00;0.76;395.53;0.00;0.00;0.62;;;;;28.80;1.00;;;;;;2267924;61;1997;-84
2022/08/12 12:19:49;798869.00;2.66;1379.15;0.00;0.00;0.62;;;;;28.70;1.00;;;;;;2278111;61;1391;-87
2022/08/12 12:22:17;99047.00;0.33;171.93;32687.00;0.11;57.23;;;;;28.40;1.00;;;;;;2276276;61;1059;-85
2022/08/12 12:24:46;382520.00;1.28;659.76;70355.00;0.23;122.37;;;;;28.60;1.00;;;;;;2276030;61;1793;-85
2022/08/12 12:27:13;0.00;0.00;0.62;0.00;0.00;0.62;;;;;28.80;1.00;;;;;;2275846;61;1045;-85
2022/08/12 12:29:41;78160.00;0.26;135.86;0.00;0.00;0.62;;;;;29.20;1.00;;;;;;2276195;61;1257;-84
2022/08/12 12:32:13;382129.00;1.27;659.08;66208.00;0.22;115.21;;;;;29.30;1.00;;;;;;2276225;61;1119;-85
2022/08/12 12:37:17;1390539.00;4.64;2438.79;0.00;0.00;0.62;;;;;29.30;1.00;;;;;;2381843;40;3581;-87
2022/08/12 12:44:54;1037926.00;3.46;1799.76;0.00;0.00;0.62;;;;;29.50;1.00;;;;;;2276957;55;3724;-85
2022/08/12 12:47:26;432846.00;1.44;746.28;25655.00;0.09;45.06;;;;;29.90;1.00;;;;;;2267841;61;1641;-85
2022/08/12 12:50:11;498228.00;1.66;858.77;79020.00;0.26;137.34;;;;;30.70;1.00;;;;;;2268036;61;1806;-85